Time;durP1;ratioP1;P1;durP2;ratioP2;P2;SDS_P1;SDS_P2;PMS_P1;PMS_P2;Temp;Humidity;BMP_temperature;BMP_pressure;BME280_temperature;BME280_humidity;BME280_pressure;Samples;Min_cycle;Max_cycle;Signal;HPM_P1;HPM_P2
2020/12/14 00:00:29;;;;;;;3.97;3.28;;;;;;;6.07;66.68;99770.34;4333639;33;34176;-86
2020/12/14 00:02:58;;;;;;;4.97;4.05;;;;;;;6.01;67.19;99767.34;4321532;33;33234;-85
2020/12/14 00:05:27;;;;;;;4.50;2.72;;;;;;;6.10;66.92;99764.84;4333680;33;33662;-86
2020/12/14 00:07:54;;;;;;;;;;;;;;;5.52;68.47;99774.56;4334113;33;34969;-86
2020/12/14 00:10:22;;;;;;;5.22;4.05;;;;;;;5.42;68.17;99775.34;4321814;33;34567;-86
2020/12/14 00:12:50;;;;;;;3.42;2.28;;;;;;;5.60;67.91;99788.88;4333645;33;33343;-86
2020/12/14 00:15:17;;;;;;;4.72;4.28;;;;;;;5.57;68.40;99777.69;4321369;33;34584;-86
2020/12/14 00:17:45;;;;;;;3.35;2.90;;;;;;;5.93;67.17;99782.91;4334610;33;34570;-86
2020/12/14 00:20:13;;;;;;;2.67;2.40;;;;;;;5.56;68.20;99791.84;4321618;33;33320;-85
2020/12/14 00:22:58;;;;;;;3.22;2.60;;;;;;;5.87;67.42;99786.84;4333619;33;34339;-85
2020/12/14 00:25:26;;;;;;;3.30;2.20;;;;;;;5.61;68.23;99790.56;4320721;33;32430;-85
2020/12/14 00:27:53;;;;;;;3.45;2.20;;;;;;;5.35;69.08;99797.88;4321583;33;35156;-86
2020/12/14 00:30:20;;;;;;;4.90;4.30;;;;;;;5.53;68.27;99797.38;4333597;33;34004;-86
2020/12/14 00:32:49;;;;;;;3.03;2.17;;;;;;;5.72;67.76;99795.91;4321312;33;33024;-85
2020/12/14 00:35:17;;;;;;;3.05;2.37;;;;;;;5.84;67.36;99799.44;4320905;33;32680;-86
2020/12/14 00:37:44;;;;;;;3.00;2.53;;;;;;;6.06;66.83;99796.88;4321714;33;35654;-86
2020/12/14 00:40:12;;;;;;;2.75;2.00;;;;;;;5.58;67.71;99795.25;4321475;33;34266;-86
2020/12/14 00:42:43;;;;;;;3.67;3.25;;;;;;;5.84;66.92;99807.34;4309288;33;32066;-86
2020/12/14 00:45:11;;;;;;;3.33;2.10;;;;;;;5.74;67.21;99809.81;4333312;33;33604;-85
2020/12/14 00:47:38;;;;;;;4.57;2.35;;;;;;;5.81;66.51;99819.00;4333097;33;33613;-86
2020/12/14 00:50:05;;;;;;;4.57;3.33;;;;;;;5.79;66.87;99820.91;4321194;33;33040;-86
2020/12/14 00:52:33;;;;;;;2.30;1.67;;;;;;;5.98;66.36;99817.75;4333494;33;32484;-86
2020/12/14 00:55:01;;;;;;;6.43;2.58;;;;;;;5.96;66.08;99824.94;4321292;33;33698;-86
2020/12/14 00:57:28;;;;;;;5.70;4.15;;;;;;;6.03;65.86;99824.34;4333608;33;34743;-86
2020/12/14 00:59:57;;;;;;;5.50;2.37;;;;;;;6.08;65.86;99827.47;4333411;33;33947;-86
2020/12/14 01:02:25;;;;;;;2.47;1.55;;;;;;;6.00;65.95;99835.16;4321087;33;33788;-86
2020/12/14 01:04:52;;;;;;;3.65;2.10;;;;;;;6.04;65.45;99826.03;4321215;33;33836;-86
2020/12/14 01:07:19;;;;;;;4.12;2.47;;;;;;;6.04;65.71;99836.59;4320775;33;35390;-86
2020/12/14 01:09:47;;;;;;;2.60;2.00;;;;;;;5.99;65.61;99845.81;4333284;33;34386;-85
2020/12/14 01:12:14;;;;;;;3.70;2.75;;;;;;;6.07;65.05;99854.03;4321181;33;32302;-86
2020/12/14 01:14:42;;;;;;;1.48;1.40;;;;;;;6.13;65.05;99851.75;4309549;33;34451;-86
2020/12/14 01:17:10;;;;;;;1.83;1.45;;;;;;;5.88;65.96;99845.78;4321355;33;35462;-85
2020/12/14 01:19:38;;;;;;;1.60;1.50;;;;;;;6.10;65.18;99853.78;4334170;33;36489;-86
2020/12/14 01:22:06;;;;;;;4.65;2.37;;;;;;;5.50;66.63;99853.00;4321482;33;32010;-85
2020/12/14 01:24:34;;;;;;;3.05;2.10;;;;;;;5.48;66.10;99852.25;4334250;33;32608;-85
2020/12/14 01:27:01;;;;;;;4.97;2.03;;;;;;;5.45;66.76;99855.13;4309116;33;35740;-85
2020/12/14 01:29:28;;;;;;;1.70;1.48;;;;;;;5.20;67.00;99857.00;4332890;33;34231;-86
2020/12/14 01:31:57;;;;;;;2.28;1.87;;;;;;;5.19;67.29;99858.78;4332877;33;33460;-85
2020/12/14 01:34:24;;;;;;;3.05;2.78;;;;;;;5.36;66.84;99852.31;4333190;33;34604;-85
2020/12/14 01:36:52;;;;;;;2.67;2.03;;;;;;;5.27;67.21;99850.34;4333419;33;34835;-86
2020/12/14 01:39:20;;;;;;;;;;;;;;;4.96;67.38;99862.22;4333126;33;32767;-85
2020/12/14 01:41:51;;;;;;;3.20;2.45;;;;;;;5.48;66.38;99863.66;4321579;33;33914;-86
2020/12/14 01:44:19;;;;;;;2.35;1.33;;;;;;;5.39;66.25;99870.56;4320309;33;33232;-86
2020/12/14 01:46:46;;;;;;;2.67;2.40;;;;;;;5.32;66.70;99879.84;4332863;33;34444;-85
2020/12/14 01:49:14;;;;;;;3.03;2.70;;;;;;;5.62;65.52;99875.84;4321194;33;34526;-85
2020/12/14 01:51:42;;;;;;;2.87;2.22;;;;;;;5.39;66.40;99870.56;4332309;33;33077;-86
2020/12/14 01:54:34;;;;;;;2.40;2.20;;;;;;;5.55;65.95;99866.69;4320973;33;33303;-86
2020/12/14 01:57:03;;;;;;;3.45;3.15;;;;;;;5.53;66.25;99871.25;4321309;33;34686;-85
2020/12/14 01:59:30;;;;;;;1.23;1.20;;;;;;;5.63;65.37;99869.63;4334126;33;34294;-85
2020/12/14 02:01:58;;;;;;;3.67;2.50;;;;;;;5.43;65.90;99865.78;4332224;33;33158;-86
2020/12/14 02:04:25;;;;;;;4.60;2.87;;;;;;;5.43;65.91;99868.41;4332286;33;32296;-85
2020/12/14 02:06:53;;;;;;;3.75;2.87;;;;;;;5.63;65.81;99877.53;4332376;33;34779;-85
2020/12/14 02:09:20;;;;;;;3.10;2.45;;;;;;;5.36;66.31;99882.16;4319193;33;34137;-85
2020/12/14 02:11:48;;;;;;;3.50;3.20;;;;;;;5.28;66.71;99883.66;4320499;33;32602;-85
2020/12/14 02:14:15;;;;;;;1.75;1.65;;;;;;;5.38;66.14;99880.25;4332964;33;33957;-86
2020/12/14 02:16:42;;;;;;;1.27;1.05;;;;;;;5.40;65.98;99883.66;4345005;33;33957;-86
2020/12/14 02:19:10;;;;;;;;;;;;;;;5.51;65.72;99884.53;4321379;33;34895;-85
2020/12/14 02:21:37;;;;;;;3.05;1.87;;;;;;;5.60;65.61;99889.16;4321059;33;33168;-85
2020/12/14 02:24:15;;;;;;;1.20;1.10;;;;;;;5.69;65.38;99890.31;4333936;33;33885;-85
2020/12/14 02:26:48;;;;;;;3.97;3.62;;;;;;;5.79;64.51;99881.59;4320934;33;34499;-85
2020/12/14 02:29:20;;;;;;;1.52;1.20;;;;;;;5.58;65.59;99890.25;4332624;33;34175;-85
2020/12/14 02:31:47;;;;;;;2.62;1.75;;;;;;;5.74;65.21;99891.66;4319939;33;31526;-85
2020/12/14 02:34:15;;;;;;;0.85;0.85;;;;;;;5.91;64.66;99888.66;4333045;33;34703;-85
2020/12/14 02:36:42;;;;;;;3.10;1.60;;;;;;;5.71;65.05;99891.84;4332695;33;33778;-85
2020/12/14 02:39:09;;;;;;;2.08;1.00;;;;;;;5.68;65.04;99888.63;4320346;33;34781;-86
2020/12/14 02:41:37;;;;;;;1.62;0.95;;;;;;;5.78;64.92;99892.28;4308118;33;32229;-86
2020/12/14 02:44:04;;;;;;;2.00;1.87;;;;;;;5.75;65.33;99893.31;4321047;33;34643;-85
2020/12/14 02:46:32;;;;;;;2.75;2.55;;;;;;;6.02;64.21;99893.97;4332808;33;35752;-85
2020/12/14 02:48:59;;;;;;;1.55;1.25;;;;;;;6.12;64.20;99897.62;4332736;33;33080;-86
2020/12/14 02:51:26;;;;;;;3.60;3.12;;;;;;;6.05;64.13;99890.28;4332159;33;33566;-85
2020/12/14 02:53:54;;;;;;;5.75;2.58;;;;;;;5.72;64.57;99898.84;4344743;33;32930;-86
2020/12/14 02:56:21;;;;;;;1.65;1.55;;;;;;;5.64;64.85;99898.56;4332791;33;35722;-86
2020/12/14 02:58:49;;;;;;;1.30;1.20;;;;;;;5.56;65.37;99895.63;4332852;33;34932;-86
2020/12/14 03:01:17;;;;;;;0.70;0.70;;;;;;;5.71;65.05;99909.50;4320426;33;33375;-86
2020/12/14 03:03:44;;;;;;;5.18;1.17;;;;;;;5.62;65.31;99915.44;4332831;33;33705;-85
2020/12/14 03:06:12;;;;;;;2.90;2.28;;;;;;;5.51;65.58;99912.75;4332653;33;35859;-85
2020/12/14 03:08:39;;;;;;;4.85;2.75;;;;;;;5.50;66.08;99918.97;4332821;33;34337;-86
2020/12/14 03:11:06;;;;;;;4.73;2.93;;;;;;;5.24;67.14;99927.88;4332581;33;32694;-86
2020/12/14 03:13:34;;;;;;;1.77;1.67;;;;;;;5.53;66.19;99924.87;4319907;33;33418;-85
2020/12/14 03:16:01;;;;;;;;;;;;;;;5.67;65.19;99922.06;4321153;33;35626;-86
2020/12/14 03:18:29;;;;;;;1.67;1.48;;;;;;;5.71;65.63;99925.34;4320507;33;35057;-86
2020/12/14 03:20:56;;;;;;;3.50;2.53;;;;;;;5.60;66.02;99927.91;4333541;33;33383;-86
2020/12/14 03:23:27;;;;;;;4.97;2.00;;;;;;;5.63;65.77;99925.91;4332153;33;33867;-85
2020/12/14 03:25:54;;;;;;;2.83;2.05;;;;;;;5.83;65.02;99927.97;4332198;33;35779;-85
2020/12/14 03:28:22;;;;;;;1.53;1.43;;;;;;;5.89;65.16;99927.50;4293647;33;34344;-86
2020/12/14 03:30:50;;;;;;;4.90;2.35;;;;;;;5.65;65.75;99923.13;4323891;33;34865;-85
2020/12/14 03:33:18;;;;;;;4.95;1.75;;;;;;;6.01;64.65;99929.25;4332979;33;33926;-86
2020/12/14 03:35:47;;;;;;;;;;;;;;;5.93;65.02;99930.75;4320614;33;35009;-85
2020/12/14 03:38:15;;;;;;;2.67;2.45;;;;;;;6.01;64.55;99937.19;4320231;33;33546;-85
2020/12/14 03:40:43;;;;;;;3.35;2.70;;;;;;;5.85;64.84;99935.75;4332426;33;33570;-86
2020/12/14 03:43:10;;;;;;;6.62;2.30;;;;;;;6.01;64.41;99944.25;4332026;33;34923;-85
2020/12/14 03:45:38;;;;;;;4.15;2.75;;;;;;;6.31;63.73;99942.84;4320174;33;35013;-86
2020/12/14 03:48:06;;;;;;;2.08;1.92;;;;;;;6.19;64.19;99938.47;4332043;33;34545;-85
2020/12/14 03:50:34;;;;;;;3.10;1.10;;;;;;;6.43;63.49;99933.16;4331714;33;33305;-86
2020/12/14 03:53:02;;;;;;;0.85;0.85;;;;;;;6.09;64.42;99940.13;4320129;33;34271;-85
2020/12/14 03:55:30;;;;;;;3.30;2.30;;;;;;;6.41;63.75;99941.19;4332177;33;35670;-86
2020/12/14 03:57:57;;;;;;;3.40;3.03;;;;;;;6.01;64.68;99949.53;4331819;33;33106;-85
2020/12/14 04:00:25;;;;;;;3.25;2.20;;;;;;;5.96;64.53;99955.16;4319449;33;31613;-85
2020/12/14 04:02:54;;;;;;;2.10;1.50;;;;;;;5.92;64.87;99953.69;4319616;33;34425;-85
2020/12/14 04:05:21;;;;;;;1.95;1.85;;;;;;;6.06;64.64;99963.25;4319646;33;33726;-86
2020/12/14 04:07:48;;;;;;;1.43;1.33;;;;;;;5.92;64.86;99952.84;4319725;33;33046;-85
2020/12/14 04:10:16;;;;;;;;;;;;;;;5.38;65.92;99966.47;4319826;33;33830;-85
2020/12/14 04:12:44;;;;;;;4.43;1.00;;;;;;;5.98;64.07;99974.34;4319623;33;33020;-86
2020/12/14 04:15:11;;;;;;;0.90;0.90;;;;;;;5.86;64.67;99974.44;4331840;33;34677;-85
2020/12/14 04:17:39;;;;;;;2.12;1.95;;;;;;;5.93;64.22;99976.50;4319730;33;34240;-85
2020/12/14 04:20:06;;;;;;;1.60;1.52;;;;;;;5.93;64.45;99978.28;4331486;33;32340;-85
2020/12/14 04:22:34;;;;;;;9.95;3.47;;;;;;;6.11;64.10;99982.25;4331737;33;34638;-86
2020/12/14 04:25:02;;;;;;;2.65;2.12;;;;;;;6.29;63.86;99987.03;4307684;33;34483;-86
2020/12/14 04:27:29;;;;;;;3.03;1.95;;;;;;;6.25;63.44;99987.38;4319307;33;34486;-85
2020/12/14 04:29:57;;;;;;;2.60;1.62;;;;;;;6.34;63.13;99992.81;4319414;33;33439;-86
2020/12/14 04:32:24;;;;;;;2.35;2.05;;;;;;;6.51;62.98;99995.03;4331966;33;34517;-87
2020/12/14 04:34:52;;;;;;;7.47;2.22;;;;;;;5.86;64.49;99993.75;4333608;33;35010;-85
2020/12/14 04:37:19;;;;;;;4.47;1.58;;;;;;;5.82;65.07;100007.25;4321082;33;34232;-85
2020/12/14 04:39:47;;;;;;;2.00;1.73;;;;;;;5.76;64.70;100005.03;4321313;33;32925;-86
2020/12/14 04:42:15;;;;;;;5.25;2.55;;;;;;;5.84;64.48;100011.50;4320923;33;34291;-85
2020/12/14 04:44:43;;;;;;;2.58;1.98;;;;;;;6.04;63.80;100018.81;4333106;33;33453;-84
2020/12/14 04:47:12;;;;;;;6.05;3.78;;;;;;;5.98;64.00;100018.41;4321270;33;35097;-85
2020/12/14 04:49:40;;;;;;;2.40;2.30;;;;;;;5.94;63.59;100023.06;4333161;33;36250;-86
2020/12/14 04:52:08;;;;;;;3.42;2.97;;;;;;;6.13;63.57;100025.22;4332961;33;33890;-85
2020/12/14 04:54:37;;;;;;;2.42;2.22;;;;;;;6.09;63.46;100032.56;4309492;33;35488;-85
2020/12/14 04:57:06;;;;;;;2.90;1.67;;;;;;;6.19;63.33;100038.84;4321283;33;32494;-84
2020/12/14 04:59:33;;;;;;;3.67;2.75;;;;;;;6.04;63.66;100047.88;4321077;33;32331;-86
2020/12/14 05:02:08;;;;;;;7.03;3.42;;;;;;;6.34;62.86;100044.81;4321157;33;33604;-85
2020/12/14 05:04:37;;;;;;;4.93;2.90;;;;;;;6.19;62.96;100049.41;4309474;33;35747;-86
2020/12/14 05:07:06;;;;;;;4.57;3.37;;;;;;;5.77;64.02;100054.25;4309279;33;33703;-85
2020/12/14 05:09:34;;;;;;;3.33;2.67;;;;;;;6.19;63.48;100053.84;4321028;33;31463;-85
2020/12/14 05:12:01;;;;;;;4.37;2.20;;;;;;;6.22;62.91;100058.91;4332870;33;34008;-86
2020/12/14 05:14:30;;;;;;;3.53;1.98;;;;;;;6.26;62.66;100063.84;4333245;33;36029;-85
2020/12/14 05:16:58;;;;;;;5.55;2.58;;;;;;;6.23;62.99;100069.38;4320767;33;33183;-84
2020/12/14 05:19:27;;;;;;;2.85;1.42;;;;;;;6.21;63.14;100067.78;4309131;33;31841;-84
2020/12/14 05:21:59;;;;;;;3.03;2.83;;;;;;;6.10;63.44;100070.34;4319752;33;32148;-85
2020/12/14 05:24:31;;;;;;;2.37;2.17;;;;;;;6.07;63.18;100070.59;4319780;33;35280;-85
2020/12/14 05:27:00;;;;;;;5.97;2.20;;;;;;;6.18;63.00;100075.94;4331985;33;35291;-85
2020/12/14 05:29:30;;;;;;;3.50;2.33;;;;;;;5.96;63.41;100073.16;4324223;33;34086;-85
2020/12/14 05:32:25;;;;;;;3.42;1.80;;;;;;;5.97;64.01;100075.66;4328317;33;33648;-85
2020/12/14 05:34:52;;;;;;;4.82;2.58;;;;;;;5.99;63.50;100086.12;4307120;33;34300;-85
2020/12/14 05:37:20;;;;;;;3.33;2.00;;;;;;;6.28;63.03;100088.37;4332881;33;34215;-85
2020/12/14 05:39:47;;;;;;;1.75;1.65;;;;;;;6.06;63.64;100093.50;4330433;33;34084;-85
2020/12/14 05:42:19;;;;;;;;;;;;;;;6.02;63.66;100094.69;4345727;33;34481;-86
2020/12/14 05:44:49;;;;;;;3.17;2.58;;;;;;;6.02;63.64;100094.69;4344447;33;33943;-85
2020/12/14 05:47:36;;;;;;;5.75;3.45;;;;;;;6.10;63.44;100096.75;4307637;33;34213;-85
2020/12/14 05:50:08;;;;;;;5.00;3.37;;;;;;;6.10;63.10;100094.97;4300519;33;33078;-85
2020/12/14 05:52:47;;;;;;;5.32;3.37;;;;;;;6.19;62.99;100104.03;4339793;33;33712;-85
2020/12/14 05:55:18;;;;;;;3.33;2.85;;;;;;;6.20;62.80;100108.37;4322849;33;33125;-85
2020/12/14 05:57:52;;;;;;;3.35;2.42;;;;;;;6.12;63.47;100108.06;4320643;33;33795;-85
2020/12/14 06:00:20;;;;;;;2.15;1.90;;;;;;;5.63;64.90;100117.69;4335951;33;34073;-85
2020/12/14 06:02:49;;;;;;;2.62;2.12;;;;;;;5.81;64.47;100121.75;4322516;33;31849;-85
2020/12/14 06:05:19;;;;;;;3.22;1.85;;;;;;;6.09;63.39;100119.72;4329662;33;34722;-85
2020/12/14 06:07:56;;;;;;;2.50;1.85;;;;;;;5.80;64.02;100123.53;4320066;33;33160;-85
2020/12/14 06:10:24;;;;;;;2.33;1.58;;;;;;;5.71;64.72;100134.69;4333116;33;34484;-86
2020/12/14 06:12:56;;;;;;;2.83;2.60;;;;;;;6.26;63.17;100121.16;4308926;33;34647;-85
2020/12/14 06:15:25;;;;;;;7.43;3.15;;;;;;;6.36;63.00;100127.47;4333523;33;34183;-85
2020/12/14 06:17:53;;;;;;;3.95;3.65;;;;;;;6.25;63.16;100144.06;4332142;33;33801;-84
2020/12/14 06:20:23;;;;;;;3.92;1.80;;;;;;;6.34;62.97;100142.59;4305894;33;33452;-84
2020/12/14 06:23:01;;;;;;;6.62;3.53;;;;;;;6.50;62.41;100141.38;4318638;33;32518;-84
2020/12/14 06:25:30;;;;;;;2.58;2.37;;;;;;;6.29;62.81;100142.91;4313018;33;34827;-84
2020/12/14 06:28:31;;;;;;;4.28;1.95;;;;;;;6.31;62.63;100145.41;4310446;33;33198;-84
2020/12/14 06:30:58;;;;;;;7.78;2.03;;;;;;;6.26;62.93;100155.50;4332883;33;33050;-84
2020/12/14 06:33:40;;;;;;;2.97;2.47;;;;;;;6.05;63.48;100149.91;4308614;33;35409;-84
2020/12/14 06:36:18;;;;;;;4.70;3.05;;;;;;;6.05;63.89;100152.56;4320531;33;35959;-84
2020/12/14 06:38:46;;;;;;;;;;;;;;;6.36;62.75;100157.34;4332879;33;32313;-84
2020/12/14 06:41:17;;;;;;;3.92;2.37;;;;;;;6.17;62.84;100158.78;4307962;33;33184;-84
2020/12/14 06:43:48;;;;;;;4.47;3.08;;;;;;;6.26;63.33;100155.50;4321008;33;33841;-84
2020/12/14 06:46:26;;;;;;;4.75;3.65;;;;;;;6.25;63.06;100154.63;4320241;33;34085;-84
2020/12/14 06:48:54;;;;;;;4.70;3.75;;;;;;;6.22;62.71;100160.13;4319935;33;33606;-84
2020/12/14 06:51:21;;;;;;;3.62;3.12;;;;;;;6.03;62.99;100154.47;4307994;33;31767;-85
2020/12/14 06:53:54;;;;;;;7.53;4.50;;;;;;;5.70;64.62;100158.56;4332774;33;33609;-85
2020/12/14 06:56:28;;;;;;;4.65;2.83;;;;;;;5.91;63.89;100150.03;4319152;33;33401;-85
2020/12/14 06:58:55;;;;;;;5.72;2.40;;;;;;;5.99;63.40;100150.34;4332995;33;34354;-85
2020/12/14 07:01:35;;;;;;;4.25;3.03;;;;;;;5.98;63.69;100155.75;4332365;33;33557;-85
2020/12/14 07:04:27;;;;;;;6.28;3.40;;;;;;;6.06;63.63;100163.97;4344560;33;33151;-85
2020/12/14 07:06:56;;;;;;;2.70;2.22;;;;;;;6.43;62.37;100161.25;4342557;33;34655;-84
2020/12/14 07:09:32;;;;;;;2.50;2.10;;;;;;;6.15;62.94;100174.72;4332182;33;32279;-85
2020/12/14 07:12:09;;;;;;;2.97;1.80;;;;;;;6.31;62.43;100171.84;4319963;33;31377;-85
2020/12/14 07:14:51;;;;;;;4.75;3.67;;;;;;;6.01;63.87;100169.56;4320305;33;32934;-85
2020/12/14 07:17:28;;;;;;;3.08;1.70;;;;;;;6.07;63.78;100184.16;4332657;33;35482;-85
2020/12/14 07:19:59;;;;;;;2.20;2.08;;;;;;;6.07;62.97;100181.50;4332021;33;33387;-84
2020/12/14 07:22:34;;;;;;;3.17;2.87;;;;;;;5.68;64.55;100185.06;4320267;33;32774;-85
2020/12/14 07:25:04;;;;;;;4.10;3.53;;;;;;;5.96;64.42;100181.41;4320345;33;34588;-85
2020/12/14 07:27:33;;;;;;;3.10;2.25;;;;;;;6.12;63.09;100177.59;4332739;33;34669;-85
2020/12/14 07:30:09;;;;;;;2.80;2.12;;;;;;;5.86;63.86;100185.63;4331831;33;36345;-85
2020/12/14 07:32:38;;;;;;;8.13;3.83;;;;;;;5.91;63.41;100176.44;4320325;33;33237;-85
2020/12/14 07:35:08;;;;;;;2.33;2.22;;;;;;;5.47;64.78;100183.88;4319894;33;32766;-85
2020/12/14 07:37:36;;;;;;;4.45;2.58;;;;;;;5.95;63.39;100183.19;4330870;33;34441;-85
2020/12/14 07:40:08;;;;;;;5.15;4.75;;;;;;;6.11;62.86;100181.19;4307758;33;32725;-85
2020/12/14 07:42:43;;;;;;;4.20;2.45;;;;;;;5.77;64.46;100178.31;4307372;33;31572;-85
2020/12/14 07:45:23;;;;;;;4.68;3.83;;;;;;;5.47;65.33;100183.88;4332497;33;33290;-85
2020/12/14 07:47:52;;;;;;;5.00;3.65;;;;;;;5.70;65.05;100191.06;4331845;33;32869;-85
2020/12/14 07:50:25;;;;;;;7.00;4.20;;;;;;;5.60;65.09;100186.53;4330861;33;32523;-85
2020/12/14 07:52:56;;;;;;;8.00;4.00;;;;;;;6.02;63.46;100179.19;4332311;33;34197;-85
2020/12/14 07:55:26;;;;;;;3.55;2.67;;;;;;;5.82;64.41;100181.50;4331541;33;33847;-85
2020/12/14 07:57:54;;;;;;;2.85;2.65;;;;;;;5.93;64.92;100176.31;4331870;33;34902;-85
2020/12/14 08:00:23;;;;;;;2.80;2.53;;;;;;;6.16;64.22;100183.50;4331031;33;33576;-84
2020/12/14 08:03:00;;;;;;;6.93;3.92;;;;;;;6.28;62.76;100186.13;4308131;33;34068;-85
2020/12/14 08:05:28;;;;;;;4.30;3.58;;;;;;;6.14;64.17;100196.81;4331715;33;33931;-85
2020/12/14 08:08:01;;;;;;;5.97;3.85;;;;;;;6.24;64.18;100192.56;4319072;33;33409;-85
2020/12/14 08:10:37;;;;;;;2.85;2.60;;;;;;;6.37;63.96;100198.69;4333604;33;34267;-85
2020/12/14 08:13:10;;;;;;;4.78;2.78;;;;;;;6.36;62.63;100198.81;4319433;33;31881;-85
2020/12/14 08:15:44;;;;;;;3.33;3.03;;;;;;;6.64;62.55;100195.88;4333402;33;34462;-85
2020/12/14 08:18:14;;;;;;;3.50;3.12;;;;;;;6.36;63.82;100202.28;4333580;33;34497;-85
2020/12/14 08:20:45;;;;;;;3.97;2.00;;;;;;;6.25;63.85;100202.19;4321843;33;34984;-85
2020/12/14 08:23:18;;;;;;;3.80;3.45;;;;;;;6.44;62.66;100196.47;4321691;33;33371;-85
2020/12/14 08:25:49;;;;;;;3.20;2.72;;;;;;;6.46;61.57;100200.69;4321238;33;33509;-85
2020/12/14 08:28:28;;;;;;;4.70;2.35;;;;;;;6.72;60.95;100196.19;4332708;33;34348;-85
2020/12/14 08:30:57;;;;;;;6.22;3.30;;;;;;;6.49;61.17;100211.03;4321462;33;34979;-85
2020/12/14 08:33:25;;;;;;;4.90;2.83;;;;;;;6.46;61.57;100202.47;4333310;33;32268;-85
2020/12/14 08:35:55;;;;;;;3.05;2.83;;;;;;;6.08;62.41;100201.69;4333563;33;33464;-85
2020/12/14 08:38:25;;;;;;;4.78;3.28;;;;;;;6.00;63.49;100210.16;4332993;33;36720;-85
2020/12/14 08:41:04;;;;;;;3.83;3.45;;;;;;;5.70;65.16;100227.19;4333807;33;34441;-85
2020/12/14 08:43:36;;;;;;;4.50;2.03;;;;;;;6.27;62.29;100221.44;4333117;33;32442;-85
2020/12/14 08:46:09;;;;;;;3.00;2.80;;;;;;;5.89;62.79;100228.50;4331213;33;33310;-84
2020/12/14 08:48:55;;;;;;;8.20;4.28;;;;;;;5.92;63.11;100227.44;4320938;33;32977;-84
2020/12/14 08:51:28;;;;;;;;;;;;;;;5.74;64.99;100229.53;4333371;33;35085;-84
2020/12/14 08:54:10;;;;;;;4.78;3.17;;;;;;;5.80;64.21;100226.47;4333566;33;33268;-84
2020/12/14 08:56:47;;;;;;;12.27;5.25;;;;;;;6.00;63.95;100225.12;4333451;33;34657;-85
2020/12/14 08:59:20;;;;;;;8.48;3.40;;;;;;;6.24;63.68;100226.91;4331620;33;34654;-86
2020/12/14 09:02:03;;;;;;;3.95;3.15;;;;;;;6.02;63.52;100241.72;4330574;33;32489;-86
2020/12/14 09:04:32;;;;;;;3.65;3.03;;;;;;;6.23;63.12;100243.72;4330088;33;31772;-86
2020/12/14 09:07:00;;;;;;;2.00;1.80;;;;;;;6.18;63.19;100245.00;4325714;33;32935;-86
2020/12/14 09:09:41;;;;;;;1.70;1.52;;;;;;;5.69;65.84;100242.16;4324958;33;33665;-87
2020/12/14 09:12:10;;;;;;;2.12;1.92;;;;;;;6.01;63.75;100247.94;4331080;33;33241;-87
2020/12/14 09:14:38;;;;;;;3.37;2.85;;;;;;;6.27;62.19;100237.28;4324003;33;33489;-87
2020/12/14 09:17:13;;;;;;;4.05;3.25;;;;;;;6.39;62.58;100235.56;4319585;33;34125;-86
2020/12/14 09:19:48;;;;;;;2.92;2.22;;;;;;;6.30;62.67;100226.50;4323831;33;33219;-87
2020/12/14 09:22:25;;;;;;;3.55;2.45;;;;;;;6.17;63.38;100224.81;4337648;33;32641;-87
2020/12/14 09:24:53;;;;;;;2.70;2.33;;;;;;;6.54;62.59;100218.62;4332129;33;33129;-85
2020/12/14 09:27:21;;;;;;;7.07;4.35;;;;;;;6.83;60.95;100217.41;4319305;33;33172;-85
2020/12/14 09:29:49;;;;;;;3.75;2.80;;;;;;;6.55;61.28;100220.31;4332827;33;34875;-85
2020/12/14 09:32:17;;;;;;;6.30;1.83;;;;;;;6.79;60.85;100210.66;4332808;33;34379;-85
2020/12/14 09:34:44;;;;;;;3.60;3.30;;;;;;;6.80;61.43;100212.34;4333233;33;32369;-85
2020/12/14 09:37:12;;;;;;;5.95;3.33;;;;;;;6.68;61.72;100213.19;4320993;33;34361;-85
2020/12/14 09:39:41;;;;;;;4.80;3.30;;;;;;;6.38;61.83;100213.59;4308482;33;33892;-86
2020/12/14 09:42:08;;;;;;;4.95;4.60;;;;;;;7.02;60.27;100208.03;4320950;33;33978;-85
2020/12/14 09:44:36;;;;;;;3.33;2.28;;;;;;;6.50;62.44;100210.09;4320407;33;33469;-86
2020/12/14 09:47:04;;;;;;;4.37;3.75;;;;;;;6.97;60.78;100209.28;4321094;33;33112;-86
2020/12/14 09:49:32;;;;;;;3.65;2.90;;;;;;;6.96;60.76;100210.25;4333003;33;34678;-85
2020/12/14 09:51:59;;;;;;;4.07;2.65;;;;;;;6.68;61.76;100210.56;4318456;33;34216;-85
2020/12/14 09:54:27;;;;;;;6.75;5.45;;;;;;;6.70;61.96;100212.16;4320519;33;33830;-85
2020/12/14 09:56:54;;;;;;;10.00;7.18;;;;;;;6.92;61.21;100201.69;4333465;33;34586;-85
2020/12/14 09:59:21;;;;;;;4.32;3.95;;;;;;;7.05;61.05;100204.28;4295817;33;35621;-87
2020/12/14 10:01:49;;;;;;;10.45;3.25;;;;;;;6.83;61.10;100202.41;4323278;33;34311;-86
2020/12/14 10:04:18;;;;;;;5.12;3.22;;;;;;;6.87;61.27;100208.28;4332362;33;35752;-86
2020/12/14 10:06:47;;;;;;;7.70;3.87;;;;;;;7.06;61.02;100204.19;4332699;33;33336;-86
2020/12/14 10:09:15;;;;;;;5.45;3.50;;;;;;;6.88;60.60;100202.06;4308774;33;34797;-86
2020/12/14 10:11:43;;;;;;;6.15;3.95;;;;;;;7.17;60.07;100214.81;4332720;33;33980;-86
2020/12/14 10:14:10;;;;;;;5.62;3.15;;;;;;;7.26;60.24;100214.16;4329776;33;33218;-86
2020/12/14 10:16:38;;;;;;;;;;;;;;;7.28;60.48;100212.22;4327988;33;32265;-87
2020/12/14 10:19:13;;;;;;;7.37;4.93;;;;;;;7.30;60.67;100204.19;4319859;33;34211;-86
2020/12/14 10:21:41;;;;;;;4.87;3.83;;;;;;;7.08;61.25;100207.56;4332562;33;35166;-86
2020/12/14 10:24:08;;;;;;;5.87;3.42;;;;;;;6.89;62.23;100206.37;4320239;33;31703;-86
2020/12/14 10:26:37;;;;;;;5.25;3.55;;;;;;;6.91;61.49;100199.19;4332457;33;33634;-85
2020/12/14 10:29:04;;;;;;;5.12;4.00;;;;;;;6.47;62.22;100198.88;4308874;33;34624;-86
2020/12/14 10:31:33;;;;;;;3.10;2.28;;;;;;;6.90;61.82;100205.44;4331645;33;34582;-85
2020/12/14 10:34:01;;;;;;;5.78;3.42;;;;;;;7.07;61.14;100197.13;4331869;33;33268;-85
2020/12/14 10:36:28;;;;;;;3.12;2.25;;;;;;;7.19;60.85;100202.31;4308830;33;34548;-85
2020/12/14 10:38:56;;;;;;;3.22;2.83;;;;;;;7.23;60.53;100201.16;4317701;33;35556;-85
2020/12/14 10:41:24;;;;;;;17.05;9.43;;;;;;;7.27;60.69;100204.41;4319713;33;34720;-85
2020/12/14 10:43:51;;;;;;;8.00;4.15;;;;;;;7.44;59.79;100201.38;4331947;33;32847;-86
2020/12/14 10:46:24;;;;;;;4.72;3.90;;;;;;;7.20;60.47;100201.38;4320215;33;33673;-86
2020/12/14 10:48:52;;;;;;;7.35;3.95;;;;;;;7.16;60.49;100202.56;4332399;33;33773;-87
2020/12/14 10:51:20;;;;;;;7.10;3.87;;;;;;;6.99;61.00;100202.13;4332337;33;34793;-85
2020/12/14 10:53:49;;;;;;;5.80;4.25;;;;;;;5.92;64.21;100199.25;4332045;33;33234;-86
2020/12/14 10:56:16;;;;;;;5.95;3.70;;;;;;;6.79;61.64;100197.44;4319671;33;33471;-85
2020/12/14 10:58:44;;;;;;;4.40;3.60;;;;;;;7.14;61.03;100207.13;4330702;33;34904;-85
2020/12/14 11:01:12;;;;;;;6.32;4.95;;;;;;;7.28;60.13;100203.47;4331346;33;34317;-85
2020/12/14 11:03:40;;;;;;;6.15;4.57;;;;;;;7.42;60.24;100201.47;4331837;33;33999;-85
2020/12/14 11:06:07;;;;;;;11.90;5.57;;;;;;;7.05;61.00;100191.06;4320040;33;33312;-85
2020/12/14 11:08:35;;;;;;;6.22;4.35;;;;;;;7.08;61.03;100206.75;4332396;33;35281;-85
2020/12/14 11:11:03;;;;;;;6.93;5.05;;;;;;;7.04;60.21;100205.25;4319582;33;33574;-84
2020/12/14 11:13:30;;;;;;;8.35;4.87;;;;;;;7.15;60.40;100206.16;4319539;33;31652;-85
2020/12/14 11:15:59;;;;;;;6.18;5.05;;;;;;;7.19;60.85;100207.63;4319512;33;34798;-85
2020/12/14 11:18:44;;;;;;;3.85;3.15;;;;;;;7.40;60.50;100223.72;4332190;33;35922;-85
2020/12/14 11:21:43;;;;;;;4.68;3.75;;;;;;;7.46;60.23;100225.91;4313504;33;34564;-86
2020/12/14 11:24:12;;;;;;;6.12;4.80;;;;;;;7.35;60.09;100220.59;4319637;33;31509;-85
2020/12/14 11:26:40;;;;;;;8.38;5.85;;;;;;;7.46;59.58;100224.09;4320427;33;33475;-85
2020/12/14 11:29:08;;;;;;;5.28;3.45;;;;;;;7.43;59.79;100223.47;4332115;33;34478;-84
2020/12/14 11:31:36;;;;;;;10.98;4.87;;;;;;;7.21;60.02;100218.94;4319929;33;33200;-84
2020/12/14 11:34:04;;;;;;;8.60;5.37;;;;;;;7.06;60.34;100219.22;4331669;33;32108;-84
2020/12/14 11:36:32;;;;;;;7.65;3.95;;;;;;;7.42;59.51;100227.09;4319954;33;33606;-84
2020/12/14 11:39:00;;;;;;;12.13;7.35;;;;;;;7.52;59.48;100233.37;4332178;33;34910;-84
2020/12/14 11:41:28;;;;;;;9.70;6.07;;;;;;;7.65;59.12;100229.69;4332957;33;34455;-84
2020/12/14 11:43:56;;;;;;;;;;;;;;;6.85;61.26;100231.34;4331398;33;33691;-84
2020/12/14 11:46:24;;;;;;;7.00;5.10;;;;;;;7.20;60.44;100237.56;4320324;33;33737;-84
2020/12/14 11:48:55;;;;;;;7.80;4.05;;;;;;;7.28;60.08;100232.56;4319834;33;34704;-84
2020/12/14 11:51:22;;;;;;;8.40;5.45;;;;;;;7.17;59.83;100230.69;4307618;33;33741;-83